sensor_id;sensor_type;location;lat;lon;timestamp;P1;durP1;ratioP1;P2;durP2;ratioP2
66270;SDS011;53063;39.614;8.814;2023-02-15T00:01:54;15.90;;;9.38;;
66270;SDS011;53063;39.614;8.814;2023-02-15T00:04:21;17.65;;;9.18;;
66270;SDS011;53063;39.614;8.814;2023-02-15T00:06:49;16.50;;;8.88;;
66270;SDS011;53063;39.614;8.814;2023-02-15T00:09:15;16.02;;;8.65;;
66270;SDS011;53063;39.614;8.814;2023-02-15T00:11:41;15.35;;;7.55;;
66270;SDS011;53063;39.614;8.814;2023-02-15T00:14:10;16.40;;;7.72;;
66270;SDS011;53063;39.614;8.814;2023-02-15T00:16:38;14.60;;;8.32;;
66270;SDS011;53063;39.614;8.814;2023-02-15T00:19:05;14.48;;;8.23;;
66270;SDS011;53063;39.614;8.814;2023-02-15T00:21:32;13.68;;;7.82;;
66270;SDS011;53063;39.614;8.814;2023-02-15T00:23:59;15.55;;;9.00;;
66270;SDS011;53063;39.614;8.814;2023-02-15T00:26:26;23.20;;;10.23;;
66270;SDS011;53063;39.614;8.814;2023-02-15T00:28:52;14.68;;;8.18;;
66270;SDS011;53063;39.614;8.814;2023-02-15T00:31:19;17.85;;;9.95;;
66270;SDS011;53063;39.614;8.814;2023-02-15T00:33:45;15.82;;;8.48;;
66270;SDS011;53063;39.614;8.814;2023-02-15T00:36:12;18.08;;;8.60;;
66270;SDS011;53063;39.614;8.814;2023-02-15T00:38:38;17.80;;;8.80;;
66270;SDS011;53063;39.614;8.814;2023-02-15T00:41:05;16.63;;;8.93;;
66270;SDS011;53063;39.614;8.814;2023-02-15T00:43:34;16.10;;;7.90;;
66270;SDS011;53063;39.614;8.814;2023-02-15T00:46:00;14.90;;;7.65;;
66270;SDS011;53063;39.614;8.814;2023-02-15T00:48:27;12.23;;;7.00;;
66270;SDS011;53063;39.614;8.814;2023-02-15T00:50:55;11.57;;;6.18;;
66270;SDS011;53063;39.614;8.814;2023-02-15T00:53:22;14.98;;;6.93;;
66270;SDS011;53063;39.614;8.814;2023-02-15T00:55:49;12.00;;;6.72;;
66270;SDS011;53063;39.614;8.814;2023-02-15T00:58:15;13.38;;;7.22;;
66270;SDS011;53063;39.614;8.814;2023-02-15T01:00:45;14.88;;;7.13;;
66270;SDS011;53063;39.614;8.814;2023-02-15T01:03:13;10.98;;;6.70;;
66270;SDS011;53063;39.614;8.814;2023-02-15T01:05:41;15.35;;;7.50;;
66270;SDS011;53063;39.614;8.814;2023-02-15T01:08:07;16.15;;;8.07;;
66270;SDS011;53063;39.614;8.814;2023-02-15T01:10:34;13.73;;;7.65;;
66270;SDS011;53063;39.614;8.814;2023-02-15T01:13:00;14.52;;;8.10;;
66270;SDS011;53063;39.614;8.814;2023-02-15T01:15:26;15.32;;;8.20;;
66270;SDS011;53063;39.614;8.814;2023-02-15T01:17:52;12.40;;;7.20;;
66270;SDS011;53063;39.614;8.814;2023-02-15T01:20:20;14.75;;;7.85;;
66270;SDS011;53063;39.614;8.814;2023-02-15T01:22:51;11.15;;;7.15;;
66270;SDS011;53063;39.614;8.814;2023-02-15T01:25:19;13.60;;;7.13;;
66270;SDS011;53063;39.614;8.814;2023-02-15T01:27:47;15.77;;;9.20;;
66270;SDS011;53063;39.614;8.814;2023-02-15T01:30:13;16.83;;;8.50;;
66270;SDS011;53063;39.614;8.814;2023-02-15T01:32:41;13.63;;;7.95;;
66270;SDS011;53063;39.614;8.814;2023-02-15T01:35:07;13.30;;;6.93;;
66270;SDS011;53063;39.614;8.814;2023-02-15T01:37:34;13.32;;;7.95;;
66270;SDS011;53063;39.614;8.814;2023-02-15T01:40:01;14.13;;;7.85;;
66270;SDS011;53063;39.614;8.814;2023-02-15T01:42:28;13.40;;;7.75;;
66270;SDS011;53063;39.614;8.814;2023-02-15T01:44:59;14.93;;;7.95;;
66270;SDS011;53063;39.614;8.814;2023-02-15T01:52:54;18.15;;;8.52;;
66270;SDS011;53063;39.614;8.814;2023-02-15T01:55:25;21.20;;;9.05;;
66270;SDS011;53063;39.614;8.814;2023-02-15T01:57:55;16.17;;;8.35;;
66270;SDS011;53063;39.614;8.814;2023-02-15T02:00:21;15.73;;;7.85;;
66270;SDS011;53063;39.614;8.814;2023-02-15T02:02:49;12.60;;;7.22;;
66270;SDS011;53063;39.614;8.814;2023-02-15T02:05:21;11.75;;;7.05;;
66270;SDS011;53063;39.614;8.814;2023-02-15T02:07:47;10.52;;;6.30;;
66270;SDS011;53063;39.614;8.814;2023-02-15T02:10:19;9.88;;;5.43;;
66270;SDS011;53063;39.614;8.814;2023-02-15T02:15:18;10.75;;;5.50;;
66270;SDS011;53063;39.614;8.814;2023-02-15T02:20:54;12.88;;;6.28;;
66270;SDS011;53063;39.614;8.814;2023-02-15T02:36:52;6.40;;;4.22;;
66270;SDS011;53063;39.614;8.814;2023-02-15T02:39:43;11.43;;;5.00;;
66270;SDS011;53063;39.614;8.814;2023-02-15T02:44:52;10.48;;;5.63;;
66270;SDS011;53063;39.614;8.814;2023-02-15T02:47:26;11.10;;;5.75;;
66270;SDS011;53063;39.614;8.814;2023-02-15T02:50:04;14.33;;;6.20;;
66270;SDS011;53063;39.614;8.814;2023-02-15T02:52:49;12.45;;;5.88;;
66270;SDS011;53063;39.614;8.814;2023-02-15T03:00:21;9.38;;;4.30;;
66270;SDS011;53063;39.614;8.814;2023-02-15T03:02:49;9.50;;;4.63;;
66270;SDS011;53063;39.614;8.814;2023-02-15T03:05:21;7.63;;;4.20;;
66270;SDS011;53063;39.614;8.814;2023-02-15T03:07:50;9.25;;;4.60;;
66270;SDS011;53063;39.614;8.814;2023-02-15T03:10:19;6.82;;;4.05;;
66270;SDS011;53063;39.614;8.814;2023-02-15T03:12:49;12.05;;;4.85;;
66270;SDS011;53063;39.614;8.814;2023-02-15T03:15:21;10.80;;;5.25;;
66270;SDS011;53063;39.614;8.814;2023-02-15T03:17:55;8.35;;;4.75;;
66270;SDS011;53063;39.614;8.814;2023-02-15T03:20:29;7.65;;;4.28;;
66270;SDS011;53063;39.614;8.814;2023-02-15T03:23:11;8.35;;;4.13;;
66270;SDS011;53063;39.614;8.814;2023-02-15T03:28:13;6.78;;;4.28;;
66270;SDS011;53063;39.614;8.814;2023-02-15T03:30:45;11.75;;;4.80;;
66270;SDS011;53063;39.614;8.814;2023-02-15T03:33:16;10.00;;;4.38;;
66270;SDS011;53063;39.614;8.814;2023-02-15T03:38:09;9.77;;;5.10;;
66270;SDS011;53063;39.614;8.814;2023-02-15T03:40:41;11.95;;;5.00;;
66270;SDS011;53063;39.614;8.814;2023-02-15T03:46:08;8.35;;;4.47;;
66270;SDS011;53063;39.614;8.814;2023-02-15T03:48:41;9.93;;;4.68;;
66270;SDS011;53063;39.614;8.814;2023-02-15T03:51:12;10.68;;;4.78;;
66270;SDS011;53063;39.614;8.814;2023-02-15T03:54:08;8.55;;;4.53;;
66270;SDS011;53063;39.614;8.814;2023-02-15T03:56:38;8.27;;;4.43;;
66270;SDS011;53063;39.614;8.814;2023-02-15T03:59:06;7.50;;;4.85;;
66270;SDS011;53063;39.614;8.814;2023-02-15T04:04:35;11.82;;;4.80;;
66270;SDS011;53063;39.614;8.814;2023-02-15T04:07:04;8.65;;;4.45;;
66270;SDS011;53063;39.614;8.814;2023-02-15T04:09:32;8.48;;;4.28;;
66270;SDS011;53063;39.614;8.814;2023-02-15T04:12:16;8.93;;;4.65;;
66270;SDS011;53063;39.614;8.814;2023-02-15T04:14:42;9.80;;;4.93;;
66270;SDS011;53063;39.614;8.814;2023-02-15T04:17:27;10.65;;;5.05;;
66270;SDS011;53063;39.614;8.814;2023-02-15T04:19:53;10.07;;;4.30;;
66270;SDS011;53063;39.614;8.814;2023-02-15T04:22:37;6.03;;;4.00;;
66270;SDS011;53063;39.614;8.814;2023-02-15T04:25:22;10.68;;;5.28;;
66270;SDS011;53063;39.614;8.814;2023-02-15T04:27:49;9.82;;;4.80;;
66270;SDS011;53063;39.614;8.814;2023-02-15T04:30:17;9.35;;;4.43;;
66270;SDS011;53063;39.614;8.814;2023-02-15T04:32:45;9.05;;;4.57;;
66270;SDS011;53063;39.614;8.814;2023-02-15T04:35:11;8.13;;;4.38;;
66270;SDS011;53063;39.614;8.814;2023-02-15T04:37:38;7.93;;;4.22;;
66270;SDS011;53063;39.614;8.814;2023-02-15T04:40:05;10.07;;;4.78;;
66270;SDS011;53063;39.614;8.814;2023-02-15T04:42:32;7.75;;;4.30;;
66270;SDS011;53063;39.614;8.814;2023-02-15T04:44:58;8.73;;;4.57;;
66270;SDS011;53063;39.614;8.814;2023-02-15T04:47:24;9.88;;;4.88;;
66270;SDS011;53063;39.614;8.814;2023-02-15T04:49:50;8.20;;;4.70;;
66270;SDS011;53063;39.614;8.814;2023-02-15T04:52:16;8.05;;;4.85;;
66270;SDS011;53063;39.614;8.814;2023-02-15T04:54:45;8.38;;;4.85;;
66270;SDS011;53063;39.614;8.814;2023-02-15T04:57:11;7.82;;;4.40;;
66270;SDS011;53063;39.614;8.814;2023-02-15T04:59:37;12.20;;;5.13;;
66270;SDS011;53063;39.614;8.814;2023-02-15T05:02:03;6.47;;;3.65;;
66270;SDS011;53063;39.614;8.814;2023-02-15T05:04:29;12.00;;;4.22;;
66270;SDS011;53063;39.614;8.814;2023-02-15T05:06:55;9.82;;;4.55;;
66270;SDS011;53063;39.614;8.814;2023-02-15T05:09:21;10.13;;;4.50;;
66270;SDS011;53063;39.614;8.814;2023-02-15T05:11:47;9.25;;;4.95;;
66270;SDS011;53063;39.614;8.814;2023-02-15T05:14:13;8.82;;;5.03;;
66270;SDS011;53063;39.614;8.814;2023-02-15T05:16:38;7.47;;;4.28;;
66270;SDS011;53063;39.614;8.814;2023-02-15T05:19:04;9.48;;;4.82;;
66270;SDS011;53063;39.614;8.814;2023-02-15T05:21:31;10.57;;;6.25;;
66270;SDS011;53063;39.614;8.814;2023-02-15T05:23:57;13.90;;;5.47;;
66270;SDS011;53063;39.614;8.814;2023-02-15T05:26:24;11.60;;;6.18;;
66270;SDS011;53063;39.614;8.814;2023-02-15T05:29:09;12.40;;;6.72;;
66270;SDS011;53063;39.614;8.814;2023-02-15T05:31:36;12.43;;;7.82;;
66270;SDS011;53063;39.614;8.814;2023-02-15T05:34:02;27.17;;;11.00;;
66270;SDS011;53063;39.614;8.814;2023-02-15T05:36:28;24.70;;;9.30;;
66270;SDS011;53063;39.614;8.814;2023-02-15T05:38:54;22.38;;;9.55;;
66270;SDS011;53063;39.614;8.814;2023-02-15T05:41:20;20.42;;;8.40;;
66270;SDS011;53063;39.614;8.814;2023-02-15T05:43:47;25.27;;;11.35;;
66270;SDS011;53063;39.614;8.814;2023-02-15T05:46:13;20.38;;;10.85;;
66270;SDS011;53063;39.614;8.814;2023-02-15T05:48:39;23.60;;;11.23;;
66270;SDS011;53063;39.614;8.814;2023-02-15T05:51:06;23.65;;;10.48;;
66270;SDS011;53063;39.614;8.814;2023-02-15T05:53:35;26.80;;;13.27;;
66270;SDS011;53063;39.614;8.814;2023-02-15T05:56:02;20.55;;;11.00;;
66270;SDS011;53063;39.614;8.814;2023-02-15T05:58:30;14.98;;;6.90;;
66270;SDS011;53063;39.614;8.814;2023-02-15T06:00:58;12.00;;;7.07;;
66270;SDS011;53063;39.614;8.814;2023-02-15T06:03:24;12.52;;;7.15;;
66270;SDS011;53063;39.614;8.814;2023-02-15T06:05:51;15.82;;;7.72;;
66270;SDS011;53063;39.614;8.814;2023-02-15T06:08:18;15.55;;;7.90;;
66270;SDS011;53063;39.614;8.814;2023-02-15T06:10:46;9.20;;;4.90;;
66270;SDS011;53063;39.614;8.814;2023-02-15T06:13:13;8.15;;;4.60;;
66270;SDS011;53063;39.614;8.814;2023-02-15T06:15:39;10.25;;;4.80;;
66270;SDS011;53063;39.614;8.814;2023-02-15T06:18:04;9.27;;;5.28;;
66270;SDS011;53063;39.614;8.814;2023-02-15T06:20:30;12.30;;;6.55;;
66270;SDS011;53063;39.614;8.814;2023-02-15T06:22:56;14.57;;;7.63;;
66270;SDS011;53063;39.614;8.814;2023-02-15T06:25:22;15.27;;;8.27;;
66270;SDS011;53063;39.614;8.814;2023-02-15T06:27:49;12.60;;;7.78;;
66270;SDS011;53063;39.614;8.814;2023-02-15T06:30:15;14.07;;;7.15;;
66270;SDS011;53063;39.614;8.814;2023-02-15T06:32:41;14.18;;;7.90;;
66270;SDS011;53063;39.614;8.814;2023-02-15T06:35:07;13.05;;;7.32;;
66270;SDS011;53063;39.614;8.814;2023-02-15T06:37:35;17.80;;;9.90;;
66270;SDS011;53063;39.614;8.814;2023-02-15T06:40:01;27.60;;;13.85;;
66270;SDS011;53063;39.614;8.814;2023-02-15T06:42:29;45.13;;;18.45;;
66270;SDS011;53063;39.614;8.814;2023-02-15T06:44:55;47.30;;;21.67;;
66270;SDS011;53063;39.614;8.814;2023-02-15T06:47:21;48.78;;;22.95;;
66270;SDS011;53063;39.614;8.814;2023-02-15T06:49:47;29.92;;;14.88;;
66270;SDS011;53063;39.614;8.814;2023-02-15T06:52:13;33.45;;;15.30;;
66270;SDS011;53063;39.614;8.814;2023-02-15T06:54:39;37.75;;;15.07;;
66270;SDS011;53063;39.614;8.814;2023-02-15T06:57:05;34.72;;;15.52;;
66270;SDS011;53063;39.614;8.814;2023-02-15T06:59:31;31.58;;;15.57;;
66270;SDS011;53063;39.614;8.814;2023-02-15T07:01:56;35.30;;;16.52;;
66270;SDS011;53063;39.614;8.814;2023-02-15T07:04:22;31.65;;;16.35;;
66270;SDS011;53063;39.614;8.814;2023-02-15T07:06:48;37.30;;;16.65;;
66270;SDS011;53063;39.614;8.814;2023-02-15T07:09:14;33.75;;;16.83;;
66270;SDS011;53063;39.614;8.814;2023-02-15T07:11:40;31.70;;;15.80;;
66270;SDS011;53063;39.614;8.814;2023-02-15T07:14:25;36.47;;;18.33;;
66270;SDS011;53063;39.614;8.814;2023-02-15T07:16:51;37.92;;;17.92;;
66270;SDS011;53063;39.614;8.814;2023-02-15T07:19:16;35.97;;;17.77;;
66270;SDS011;53063;39.614;8.814;2023-02-15T07:21:42;34.00;;;18.15;;
66270;SDS011;53063;39.614;8.814;2023-02-15T07:24:10;33.30;;;17.50;;
66270;SDS011;53063;39.614;8.814;2023-02-15T07:26:36;32.65;;;17.75;;
66270;SDS011;53063;39.614;8.814;2023-02-15T07:29:02;38.35;;;21.42;;
66270;SDS011;53063;39.614;8.814;2023-02-15T07:31:28;52.25;;;27.40;;
66270;SDS011;53063;39.614;8.814;2023-02-15T07:33:54;40.88;;;22.33;;
66270;SDS011;53063;39.614;8.814;2023-02-15T07:36:20;53.55;;;28.38;;
66270;SDS011;53063;39.614;8.814;2023-02-15T07:38:46;85.63;;;45.17;;
66270;SDS011;53063;39.614;8.814;2023-02-15T07:41:13;80.95;;;46.67;;
66270;SDS011;53063;39.614;8.814;2023-02-15T07:43:40;65.45;;;36.13;;
66270;SDS011;53063;39.614;8.814;2023-02-15T07:46:09;45.45;;;26.50;;
66270;SDS011;53063;39.614;8.814;2023-02-15T07:48:37;46.17;;;24.77;;
66270;SDS011;53063;39.614;8.814;2023-02-15T07:51:05;44.20;;;25.60;;
66270;SDS011;53063;39.614;8.814;2023-02-15T07:53:32;45.78;;;26.98;;
66270;SDS011;53063;39.614;8.814;2023-02-15T07:55:59;46.83;;;25.67;;
66270;SDS011;53063;39.614;8.814;2023-02-15T07:58:25;47.00;;;28.25;;
66270;SDS011;53063;39.614;8.814;2023-02-15T08:01:11;43.00;;;26.08;;
66270;SDS011;53063;39.614;8.814;2023-02-15T08:03:38;36.85;;;22.20;;
66270;SDS011;53063;39.614;8.814;2023-02-15T08:06:04;26.38;;;16.75;;
66270;SDS011;53063;39.614;8.814;2023-02-15T08:08:30;17.50;;;11.55;;
66270;SDS011;53063;39.614;8.814;2023-02-15T08:19:03;13.05;;;7.03;;
66270;SDS011;53063;39.614;8.814;2023-02-15T08:21:32;10.82;;;6.30;;
66270;SDS011;53063;39.614;8.814;2023-02-15T08:23:59;13.40;;;7.13;;
66270;SDS011;53063;39.614;8.814;2023-02-15T08:26:26;11.32;;;6.20;;
66270;SDS011;53063;39.614;8.814;2023-02-15T08:28:53;10.15;;;6.07;;
66270;SDS011;53063;39.614;8.814;2023-02-15T08:31:19;8.60;;;5.80;;
66270;SDS011;53063;39.614;8.814;2023-02-15T08:33:46;10.02;;;5.80;;
66270;SDS011;53063;39.614;8.814;2023-02-15T08:36:16;8.55;;;4.95;;
66270;SDS011;53063;39.614;8.814;2023-02-15T08:38:45;8.50;;;5.15;;
66270;SDS011;53063;39.614;8.814;2023-02-15T08:41:16;9.07;;;5.05;;
66270;SDS011;53063;39.614;8.814;2023-02-15T08:43:44;9.38;;;5.35;;
66270;SDS011;53063;39.614;8.814;2023-02-15T08:46:12;10.45;;;4.65;;
66270;SDS011;53063;39.614;8.814;2023-02-15T08:48:39;6.75;;;4.20;;
66270;SDS011;53063;39.614;8.814;2023-02-15T08:51:09;7.70;;;5.15;;
66270;SDS011;53063;39.614;8.814;2023-02-15T08:53:40;7.95;;;4.85;;
66270;SDS011;53063;39.614;8.814;2023-02-15T08:56:08;9.70;;;5.85;;
66270;SDS011;53063;39.614;8.814;2023-02-15T08:58:34;7.53;;;5.13;;
66270;SDS011;53063;39.614;8.814;2023-02-15T09:01:01;7.25;;;5.13;;
66270;SDS011;53063;39.614;8.814;2023-02-15T09:03:37;9.65;;;5.70;;
66270;SDS011;53063;39.614;8.814;2023-02-15T09:06:04;7.22;;;4.65;;
66270;SDS011;53063;39.614;8.814;2023-02-15T09:08:30;7.75;;;4.90;;
66270;SDS011;53063;39.614;8.814;2023-02-15T09:13:36;6.88;;;4.35;;
66270;SDS011;53063;39.614;8.814;2023-02-15T09:16:04;6.38;;;4.45;;
66270;SDS011;53063;39.614;8.814;2023-02-15T09:18:32;7.85;;;4.10;;
66270;SDS011;53063;39.614;8.814;2023-02-15T09:21:09;6.63;;;4.72;;
66270;SDS011;53063;39.614;8.814;2023-02-15T09:23:39;8.55;;;5.00;;
66270;SDS011;53063;39.614;8.814;2023-02-15T09:26:07;8.63;;;4.20;;
66270;SDS011;53063;39.614;8.814;2023-02-15T09:28:37;4.88;;;3.83;;
66270;SDS011;53063;39.614;8.814;2023-02-15T09:31:14;6.07;;;4.20;;
66270;SDS011;53063;39.614;8.814;2023-02-15T09:33:42;9.95;;;4.50;;
66270;SDS011;53063;39.614;8.814;2023-02-15T09:36:19;10.90;;;5.50;;
66270;SDS011;53063;39.614;8.814;2023-02-15T09:38:47;37.88;;;13.57;;
66270;SDS011;53063;39.614;8.814;2023-02-15T09:44:15;8.48;;;3.60;;
66270;SDS011;53063;39.614;8.814;2023-02-15T09:47:25;4.68;;;3.97;;
66270;SDS011;53063;39.614;8.814;2023-02-15T09:50:16;7.35;;;3.67;;
66270;SDS011;53063;39.614;8.814;2023-02-15T09:58:42;7.15;;;3.85;;
66270;SDS011;53063;39.614;8.814;2023-02-15T10:07:20;4.43;;;3.35;;
66270;SDS011;53063;39.614;8.814;2023-02-15T10:13:04;5.53;;;3.88;;
66270;SDS011;53063;39.614;8.814;2023-02-15T10:16:12;6.63;;;4.10;;
66270;SDS011;53063;39.614;8.814;2023-02-15T10:19:23;5.55;;;3.38;;
66270;SDS011;53063;39.614;8.814;2023-02-15T10:27:07;8.63;;;6.18;;
66270;SDS011;53063;39.614;8.814;2023-02-15T10:29:39;9.93;;;5.63;;
66270;SDS011;53063;39.614;8.814;2023-02-15T10:32:23;10.45;;;7.13;;
66270;SDS011;53063;39.614;8.814;2023-02-15T10:35:01;9.48;;;5.07;;
66270;SDS011;53063;39.614;8.814;2023-02-15T10:50:56;7.85;;;4.35;;
66270;SDS011;53063;39.614;8.814;2023-02-15T10:53:38;12.98;;;5.00;;
66270;SDS011;53063;39.614;8.814;2023-02-15T10:59:46;10.30;;;6.50;;
66270;SDS011;53063;39.614;8.814;2023-02-15T11:04:51;6.72;;;4.88;;
66270;SDS011;53063;39.614;8.814;2023-02-15T11:07:40;7.47;;;4.78;;
66270;SDS011;53063;39.614;8.814;2023-02-15T11:13:02;7.38;;;4.72;;
66270;SDS011;53063;39.614;8.814;2023-02-15T11:18:43;6.78;;;3.85;;
66270;SDS011;53063;39.614;8.814;2023-02-15T11:21:22;9.82;;;4.35;;
66270;SDS011;53063;39.614;8.814;2023-02-15T11:23:54;6.55;;;4.20;;
66270;SDS011;53063;39.614;8.814;2023-02-15T11:28:57;6.38;;;4.15;;
66270;SDS011;53063;39.614;8.814;2023-02-15T11:31:41;6.22;;;4.30;;
66270;SDS011;53063;39.614;8.814;2023-02-15T11:34:19;9.68;;;6.35;;
66270;SDS011;53063;39.614;8.814;2023-02-15T11:36:58;8.68;;;4.20;;
66270;SDS011;53063;39.614;8.814;2023-02-15T11:39:27;5.93;;;3.80;;
66270;SDS011;53063;39.614;8.814;2023-02-15T11:41:58;9.85;;;4.82;;
66270;SDS011;53063;39.614;8.814;2023-02-15T11:44:28;10.70;;;3.97;;
66270;SDS011;53063;39.614;8.814;2023-02-15T11:47:09;9.85;;;5.30;;
66270;SDS011;53063;39.614;8.814;2023-02-15T11:49:36;5.82;;;3.58;;
66270;SDS011;53063;39.614;8.814;2023-02-15T11:52:07;8.10;;;4.45;;
66270;SDS011;53063;39.614;8.814;2023-02-15T11:54:39;5.10;;;3.25;;
66270;SDS011;53063;39.614;8.814;2023-02-15T11:59:47;5.63;;;2.80;;
66270;SDS011;53063;39.614;8.814;2023-02-15T12:02:21;5.18;;;2.90;;
66270;SDS011;53063;39.614;8.814;2023-02-15T12:04:52;10.07;;;5.10;;
66270;SDS011;53063;39.614;8.814;2023-02-15T12:10:28;6.13;;;2.97;;
66270;SDS011;53063;39.614;8.814;2023-02-15T12:13:10;8.00;;;4.47;;
66270;SDS011;53063;39.614;8.814;2023-02-15T12:15:38;4.07;;;2.88;;
66270;SDS011;53063;39.614;8.814;2023-02-15T12:21:11;9.55;;;3.67;;
66270;SDS011;53063;39.614;8.814;2023-02-15T12:23:52;6.95;;;3.72;;
66270;SDS011;53063;39.614;8.814;2023-02-15T12:26:25;6.57;;;3.92;;
66270;SDS011;53063;39.614;8.814;2023-02-15T12:28:54;6.07;;;3.65;;
66270;SDS011;53063;39.614;8.814;2023-02-15T12:34:03;5.88;;;3.10;;
66270;SDS011;53063;39.614;8.814;2023-02-15T12:36:45;4.20;;;2.80;;
66270;SDS011;53063;39.614;8.814;2023-02-15T12:39:20;4.80;;;2.50;;
66270;SDS011;53063;39.614;8.814;2023-02-15T12:44:21;4.78;;;2.70;;
66270;SDS011;53063;39.614;8.814;2023-02-15T12:47:03;4.63;;;2.63;;
66270;SDS011;53063;39.614;8.814;2023-02-15T12:49:41;3.80;;;2.60;;
66270;SDS011;53063;39.614;8.814;2023-02-15T12:54:44;3.35;;;1.90;;
66270;SDS011;53063;39.614;8.814;2023-02-15T12:57:22;5.03;;;3.00;;
66270;SDS011;53063;39.614;8.814;2023-02-15T13:02:54;4.25;;;2.67;;
66270;SDS011;53063;39.614;8.814;2023-02-15T13:05:25;6.88;;;4.07;;
66270;SDS011;53063;39.614;8.814;2023-02-15T13:10:40;3.92;;;2.22;;
66270;SDS011;53063;39.614;8.814;2023-02-15T13:13:22;4.82;;;2.72;;
66270;SDS011;53063;39.614;8.814;2023-02-15T13:16:02;3.05;;;2.25;;
66270;SDS011;53063;39.614;8.814;2023-02-15T13:18:36;5.43;;;2.60;;
66270;SDS011;53063;39.614;8.814;2023-02-15T13:21:08;3.58;;;2.30;;
66270;SDS011;53063;39.614;8.814;2023-02-15T13:23:37;5.28;;;2.33;;
66270;SDS011;53063;39.614;8.814;2023-02-15T13:26:05;4.38;;;2.30;;
66270;SDS011;53063;39.614;8.814;2023-02-15T13:28:55;5.55;;;2.67;;
66270;SDS011;53063;39.614;8.814;2023-02-15T13:31:24;26.25;;;13.40;;
66270;SDS011;53063;39.614;8.814;2023-02-15T13:33:55;24.10;;;11.55;;
66270;SDS011;53063;39.614;8.814;2023-02-15T14:24:44;69.90;;;33.13;;
66270;SDS011;53063;39.614;8.814;2023-02-15T14:30:15;15.05;;;7.32;;
66270;SDS011;53063;39.614;8.814;2023-02-15T14:32:46;8.77;;;5.10;;
66270;SDS011;53063;39.614;8.814;2023-02-15T14:35:34;8.90;;;4.35;;
66270;SDS011;53063;39.614;8.814;2023-02-15T14:41:09;10.80;;;5.70;;
66270;SDS011;53063;39.614;8.814;2023-02-15T14:49:43;7.13;;;4.22;;
66270;SDS011;53063;39.614;8.814;2023-02-15T14:52:10;5.35;;;3.90;;
66270;SDS011;53063;39.614;8.814;2023-02-15T15:08:01;12.38;;;6.32;;
66270;SDS011;53063;39.614;8.814;2023-02-15T15:10:39;14.25;;;6.13;;
66270;SDS011;53063;39.614;8.814;2023-02-15T15:18:49;9.80;;;6.00;;
66270;SDS011;53063;39.614;8.814;2023-02-15T15:47:58;11.70;;;6.43;;
66270;SDS011;53063;39.614;8.814;2023-02-15T15:50:45;9.35;;;4.97;;
66270;SDS011;53063;39.614;8.814;2023-02-15T15:53:22;10.93;;;6.78;;
66270;SDS011;53063;39.614;8.814;2023-02-15T15:55:52;12.63;;;7.05;;
66270;SDS011;53063;39.614;8.814;2023-02-15T15:58:24;14.00;;;8.18;;
66270;SDS011;53063;39.614;8.814;2023-02-15T16:00:51;10.07;;;5.82;;
66270;SDS011;53063;39.614;8.814;2023-02-15T16:03:24;9.82;;;4.97;;
66270;SDS011;53063;39.614;8.814;2023-02-15T16:05:52;11.18;;;5.60;;
66270;SDS011;53063;39.614;8.814;2023-02-15T16:08:33;10.23;;;4.90;;
66270;SDS011;53063;39.614;8.814;2023-02-15T16:11:23;7.72;;;5.25;;
66270;SDS011;53063;39.614;8.814;2023-02-15T16:13:50;9.05;;;4.78;;
66270;SDS011;53063;39.614;8.814;2023-02-15T16:16:20;9.77;;;5.70;;
66270;SDS011;53063;39.614;8.814;2023-02-15T16:18:52;8.88;;;6.38;;
66270;SDS011;53063;39.614;8.814;2023-02-15T16:21:22;11.13;;;6.55;;
66270;SDS011;53063;39.614;8.814;2023-02-15T16:26:40;11.85;;;8.85;;
66270;SDS011;53063;39.614;8.814;2023-02-15T16:29:29;9.38;;;6.30;;
66270;SDS011;53063;39.614;8.814;2023-02-15T16:32:14;10.93;;;5.35;;
66270;SDS011;53063;39.614;8.814;2023-02-15T16:34:57;9.75;;;6.55;;
66270;SDS011;53063;39.614;8.814;2023-02-15T16:37:26;13.20;;;7.82;;
66270;SDS011;53063;39.614;8.814;2023-02-15T16:39:54;10.90;;;7.28;;
66270;SDS011;53063;39.614;8.814;2023-02-15T16:42:20;12.32;;;7.63;;
66270;SDS011;53063;39.614;8.814;2023-02-15T16:44:51;15.45;;;8.60;;
66270;SDS011;53063;39.614;8.814;2023-02-15T16:47:27;12.77;;;7.50;;
66270;SDS011;53063;39.614;8.814;2023-02-15T16:49:58;13.77;;;7.38;;
66270;SDS011;53063;39.614;8.814;2023-02-15T16:52:27;24.70;;;11.88;;
66270;SDS011;53063;39.614;8.814;2023-02-15T16:54:58;16.58;;;9.25;;
66270;SDS011;53063;39.614;8.814;2023-02-15T16:57:27;12.00;;;7.30;;
66270;SDS011;53063;39.614;8.814;2023-02-15T17:00:05;12.35;;;8.32;;
66270;SDS011;53063;39.614;8.814;2023-02-15T17:02:33;12.43;;;7.43;;
66270;SDS011;53063;39.614;8.814;2023-02-15T17:08:06;18.45;;;8.88;;
66270;SDS011;53063;39.614;8.814;2023-02-15T17:10:34;12.95;;;8.10;;
66270;SDS011;53063;39.614;8.814;2023-02-15T17:13:11;13.15;;;7.53;;
66270;SDS011;53063;39.614;8.814;2023-02-15T17:18:16;15.20;;;7.18;;
66270;SDS011;53063;39.614;8.814;2023-02-15T17:20:45;17.70;;;8.27;;
66270;SDS011;53063;39.614;8.814;2023-02-15T17:25:48;16.15;;;9.18;;
66270;SDS011;53063;39.614;8.814;2023-02-15T17:28:20;10.52;;;7.15;;
66270;SDS011;53063;39.614;8.814;2023-02-15T17:30:48;11.02;;;6.95;;
66270;SDS011;53063;39.614;8.814;2023-02-15T17:36:17;19.02;;;11.50;;
66270;SDS011;53063;39.614;8.814;2023-02-15T17:41:23;28.23;;;18.25;;
66270;SDS011;53063;39.614;8.814;2023-02-15T17:43:49;35.88;;;20.05;;
66270;SDS011;53063;39.614;8.814;2023-02-15T17:46:15;42.10;;;22.67;;
66270;SDS011;53063;39.614;8.814;2023-02-15T17:48:45;53.90;;;27.58;;
66270;SDS011;53063;39.614;8.814;2023-02-15T17:51:13;73.70;;;34.72;;
66270;SDS011;53063;39.614;8.814;2023-02-15T17:53:40;61.80;;;28.55;;
66270;SDS011;53063;39.614;8.814;2023-02-15T17:56:26;34.17;;;16.42;;
66270;SDS011;53063;39.614;8.814;2023-02-15T17:58:52;36.80;;;21.13;;
66270;SDS011;53063;39.614;8.814;2023-02-15T18:01:18;25.58;;;15.00;;
66270;SDS011;53063;39.614;8.814;2023-02-15T18:04:04;36.17;;;19.27;;
66270;SDS011;53063;39.614;8.814;2023-02-15T18:06:53;26.73;;;15.93;;
66270;SDS011;53063;39.614;8.814;2023-02-15T18:09:37;19.73;;;13.15;;
66270;SDS011;53063;39.614;8.814;2023-02-15T18:12:23;32.03;;;16.70;;
66270;SDS011;53063;39.614;8.814;2023-02-15T18:14:51;89.45;;;47.13;;
66270;SDS011;53063;39.614;8.814;2023-02-15T18:17:18;160.32;;;86.60;;
66270;SDS011;53063;39.614;8.814;2023-02-15T18:22:18;112.65;;;56.90;;
66270;SDS011;53063;39.614;8.814;2023-02-15T18:24:45;70.30;;;35.17;;
66270;SDS011;53063;39.614;8.814;2023-02-15T18:27:13;61.22;;;31.10;;
66270;SDS011;53063;39.614;8.814;2023-02-15T18:29:39;33.28;;;19.35;;
66270;SDS011;53063;39.614;8.814;2023-02-15T18:32:06;35.85;;;20.20;;
66270;SDS011;53063;39.614;8.814;2023-02-15T18:34:37;32.40;;;14.18;;
66270;SDS011;53063;39.614;8.814;2023-02-15T18:37:06;25.52;;;10.63;;
66270;SDS011;53063;39.614;8.814;2023-02-15T18:39:39;18.50;;;8.65;;
66270;SDS011;53063;39.614;8.814;2023-02-15T18:42:32;12.88;;;7.82;;
66270;SDS011;53063;39.614;8.814;2023-02-15T18:45:00;14.65;;;8.15;;
66270;SDS011;53063;39.614;8.814;2023-02-15T18:47:37;13.80;;;8.23;;
66270;SDS011;53063;39.614;8.814;2023-02-15T18:50:03;15.20;;;8.18;;
66270;SDS011;53063;39.614;8.814;2023-02-15T18:52:31;14.82;;;8.45;;
66270;SDS011;53063;39.614;8.814;2023-02-15T18:55:01;13.85;;;8.55;;
66270;SDS011;53063;39.614;8.814;2023-02-15T18:57:31;16.00;;;7.85;;
66270;SDS011;53063;39.614;8.814;2023-02-15T18:59:57;13.15;;;7.32;;
66270;SDS011;53063;39.614;8.814;2023-02-15T19:02:23;10.65;;;6.60;;
66270;SDS011;53063;39.614;8.814;2023-02-15T19:04:49;12.50;;;6.60;;
66270;SDS011;53063;39.614;8.814;2023-02-15T19:09:45;13.02;;;7.00;;
66270;SDS011;53063;39.614;8.814;2023-02-15T19:12:13;11.15;;;7.05;;